sensor_id;sensor_type;location;lat;lon;timestamp;temperature;humidity
52941;DHT22;62001;53.366;6.636;2022-08-01T00:01:22;18.00;99.90
52941;DHT22;62001;53.366;6.636;2022-08-01T00:03:48;18.00;99.90
52941;DHT22;62001;53.366;6.636;2022-08-01T00:06:13;18.00;99.90
52941;DHT22;62001;53.366;6.636;2022-08-01T00:08:39;17.90;99.90
52941;DHT22;62001;53.366;6.636;2022-08-01T00:11:05;17.90;99.90
52941;DHT22;62001;53.366;6.636;2022-08-01T00:13:31;17.90;99.90
52941;DHT22;62001;53.366;6.636;2022-08-01T00:15:56;17.90;99.90
52941;DHT22;62001;53.366;6.636;2022-08-01T00:18:35;17.90;99.90
52941;DHT22;62001;53.366;6.636;2022-08-01T00:21:02;17.90;99.90
52941;DHT22;62001;53.366;6.636;2022-08-01T00:23:28;17.90;99.90
52941;DHT22;62001;53.366;6.636;2022-08-01T00:25:54;17.90;99.90
52941;DHT22;62001;53.366;6.636;2022-08-01T00:28:20;17.90;99.90
52941;DHT22;62001;53.366;6.636;2022-08-01T00:30:46;17.90;99.90
52941;DHT22;62001;53.366;6.636;2022-08-01T00:33:11;17.90;99.90
52941;DHT22;62001;53.366;6.636;2022-08-01T00:35:44;17.90;99.90
52941;DHT22;62001;53.366;6.636;2022-08-01T00:38:27;17.90;99.90
52941;DHT22;62001;53.366;6.636;2022-08-01T00:40:52;17.90;99.90
52941;DHT22;62001;53.366;6.636;2022-08-01T00:43:18;17.90;99.90
52941;DHT22;62001;53.366;6.636;2022-08-01T00:45:44;17.80;99.90
52941;DHT22;62001;53.366;6.636;2022-08-01T00:48:11;17.80;99.90
52941;DHT22;62001;53.366;6.636;2022-08-01T00:50:37;17.80;99.90
52941;DHT22;62001;53.366;6.636;2022-08-01T00:53:03;17.80;99.90
52941;DHT22;62001;53.366;6.636;2022-08-01T00:55:31;17.70;99.90
52941;DHT22;62001;53.366;6.636;2022-08-01T00:57:57;17.70;99.90
52941;DHT22;62001;53.366;6.636;2022-08-01T01:00:23;17.60;99.90
52941;DHT22;62001;53.366;6.636;2022-08-01T01:02:49;17.60;99.90
52941;DHT22;62001;53.366;6.636;2022-08-01T01:05:15;17.50;99.90
52941;DHT22;62001;53.366;6.636;2022-08-01T01:10:21;17.50;99.90
52941;DHT22;62001;53.366;6.636;2022-08-01T01:13:14;17.50;99.90
52941;DHT22;62001;53.366;6.636;2022-08-01T01:15:55;17.40;99.90
52941;DHT22;62001;53.366;6.636;2022-08-01T01:18:46;17.40;99.90
52941;DHT22;62001;53.366;6.636;2022-08-01T01:24:21;17.40;99.90
52941;DHT22;62001;53.366;6.636;2022-08-01T01:30:14;17.30;99.90
52941;DHT22;62001;53.366;6.636;2022-08-01T01:32:43;17.30;99.90
52941;DHT22;62001;53.366;6.636;2022-08-01T01:35:32;17.30;99.90
52941;DHT22;62001;53.366;6.636;2022-08-01T01:38:07;17.20;99.90
52941;DHT22;62001;53.366;6.636;2022-08-01T01:40:34;17.20;99.90
52941;DHT22;62001;53.366;6.636;2022-08-01T01:43:01;17.20;99.90
52941;DHT22;62001;53.366;6.636;2022-08-01T01:45:28;17.20;99.90
52941;DHT22;62001;53.366;6.636;2022-08-01T01:47:56;17.20;99.90
52941;DHT22;62001;53.366;6.636;2022-08-01T01:50:23;17.20;99.90
52941;DHT22;62001;53.366;6.636;2022-08-01T01:52:51;17.20;99.90
52941;DHT22;62001;53.366;6.636;2022-08-01T01:55:20;17.20;99.90
52941;DHT22;62001;53.366;6.636;2022-08-01T01:57:47;17.20;99.90
52941;DHT22;62001;53.366;6.636;2022-08-01T02:00:14;17.20;99.90
52941;DHT22;62001;53.366;6.636;2022-08-01T02:02:41;17.30;99.90
52941;DHT22;62001;53.366;6.636;2022-08-01T02:05:26;17.30;99.90
52941;DHT22;62001;53.366;6.636;2022-08-01T02:07:55;17.40;99.90
52941;DHT22;62001;53.366;6.636;2022-08-01T02:10:24;17.30;99.90
52941;DHT22;62001;53.366;6.636;2022-08-01T02:12:52;17.40;99.90
52941;DHT22;62001;53.366;6.636;2022-08-01T02:15:19;17.40;99.90
52941;DHT22;62001;53.366;6.636;2022-08-01T02:17:48;17.30;99.90
52941;DHT22;62001;53.366;6.636;2022-08-01T02:20:15;17.30;99.90
52941;DHT22;62001;53.366;6.636;2022-08-01T02:23:11;17.30;99.90
52941;DHT22;62001;53.366;6.636;2022-08-01T02:25:50;17.30;99.90
52941;DHT22;62001;53.366;6.636;2022-08-01T02:28:21;17.20;99.90
52941;DHT22;62001;53.366;6.636;2022-08-01T02:30:57;17.20;99.90
52941;DHT22;62001;53.366;6.636;2022-08-01T02:33:37;17.20;99.90
52941;DHT22;62001;53.366;6.636;2022-08-01T02:36:04;17.10;99.90
52941;DHT22;62001;53.366;6.636;2022-08-01T02:38:34;17.10;99.90
52941;DHT22;62001;53.366;6.636;2022-08-01T02:41:05;17.00;99.90
52941;DHT22;62001;53.366;6.636;2022-08-01T02:43:32;17.00;99.90
52941;DHT22;62001;53.366;6.636;2022-08-01T02:46:01;17.00;99.90
52941;DHT22;62001;53.366;6.636;2022-08-01T02:48:28;16.90;99.90
52941;DHT22;62001;53.366;6.636;2022-08-01T02:51:00;16.90;99.90
52941;DHT22;62001;53.366;6.636;2022-08-01T02:53:27;16.80;99.90
52941;DHT22;62001;53.366;6.636;2022-08-01T02:55:55;16.80;99.90
52941;DHT22;62001;53.366;6.636;2022-08-01T02:58:23;16.70;99.90
52941;DHT22;62001;53.366;6.636;2022-08-01T03:00:50;16.70;99.90
52941;DHT22;62001;53.366;6.636;2022-08-01T03:03:17;16.60;99.90
52941;DHT22;62001;53.366;6.636;2022-08-01T03:09:17;16.60;99.90
52941;DHT22;62001;53.366;6.636;2022-08-01T03:11:51;16.60;99.90
52941;DHT22;62001;53.366;6.636;2022-08-01T03:14:20;16.50;99.90
52941;DHT22;62001;53.366;6.636;2022-08-01T03:17:02;16.50;99.90
52941;DHT22;62001;53.366;6.636;2022-08-01T03:19:30;16.50;99.90
52941;DHT22;62001;53.366;6.636;2022-08-01T03:21:58;16.40;99.90
52941;DHT22;62001;53.366;6.636;2022-08-01T03:24:25;16.30;99.90
52941;DHT22;62001;53.366;6.636;2022-08-01T03:26:52;16.20;99.90
52941;DHT22;62001;53.366;6.636;2022-08-01T03:29:22;16.10;99.90
52941;DHT22;62001;53.366;6.636;2022-08-01T03:32:00;16.00;99.90
52941;DHT22;62001;53.366;6.636;2022-08-01T03:34:26;15.90;99.90
52941;DHT22;62001;53.366;6.636;2022-08-01T03:37:05;15.80;99.90
52941;DHT22;62001;53.366;6.636;2022-08-01T03:39:37;15.70;99.90
52941;DHT22;62001;53.366;6.636;2022-08-01T03:42:13;15.60;99.90
52941;DHT22;62001;53.366;6.636;2022-08-01T03:44:40;15.60;99.90
52941;DHT22;62001;53.366;6.636;2022-08-01T03:47:09;15.50;99.90
52941;DHT22;62001;53.366;6.636;2022-08-01T03:49:40;15.50;99.90
52941;DHT22;62001;53.366;6.636;2022-08-01T03:52:07;15.40;99.90
52941;DHT22;62001;53.366;6.636;2022-08-01T03:54:41;15.30;99.90
52941;DHT22;62001;53.366;6.636;2022-08-01T03:57:09;15.20;99.90
52941;DHT22;62001;53.366;6.636;2022-08-01T03:59:36;15.20;99.90
52941;DHT22;62001;53.366;6.636;2022-08-01T04:02:03;15.10;99.90
52941;DHT22;62001;53.366;6.636;2022-08-01T04:04:30;15.00;99.90
52941;DHT22;62001;53.366;6.636;2022-08-01T04:06:56;15.00;99.90
52941;DHT22;62001;53.366;6.636;2022-08-01T04:09:23;15.00;99.90
52941;DHT22;62001;53.366;6.636;2022-08-01T04:11:49;14.90;99.90
52941;DHT22;62001;53.366;6.636;2022-08-01T04:14:15;15.00;99.90
52941;DHT22;62001;53.366;6.636;2022-08-01T04:16:41;15.00;99.90
52941;DHT22;62001;53.366;6.636;2022-08-01T04:19:07;15.00;99.90
52941;DHT22;62001;53.366;6.636;2022-08-01T04:21:34;15.00;99.90
52941;DHT22;62001;53.366;6.636;2022-08-01T04:24:10;15.00;99.90
52941;DHT22;62001;53.366;6.636;2022-08-01T04:26:39;15.10;99.90
52941;DHT22;62001;53.366;6.636;2022-08-01T04:29:08;15.10;99.90
52941;DHT22;62001;53.366;6.636;2022-08-01T04:31:36;15.20;99.90
52941;DHT22;62001;53.366;6.636;2022-08-01T04:34:04;15.20;99.90
52941;DHT22;62001;53.366;6.636;2022-08-01T04:36:33;15.30;99.90
52941;DHT22;62001;53.366;6.636;2022-08-01T04:39:01;15.40;99.90
52941;DHT22;62001;53.366;6.636;2022-08-01T04:41:28;15.40;99.90
52941;DHT22;62001;53.366;6.636;2022-08-01T04:43:58;15.40;99.90
52941;DHT22;62001;53.366;6.636;2022-08-01T04:46:28;15.50;99.90
52941;DHT22;62001;53.366;6.636;2022-08-01T04:48:55;15.50;99.90
52941;DHT22;62001;53.366;6.636;2022-08-01T04:51:21;15.60;99.90
52941;DHT22;62001;53.366;6.636;2022-08-01T04:53:48;15.70;99.90
52941;DHT22;62001;53.366;6.636;2022-08-01T04:56:14;15.80;99.90
52941;DHT22;62001;53.366;6.636;2022-08-01T04:58:50;15.80;99.90
52941;DHT22;62001;53.366;6.636;2022-08-01T05:01:36;15.90;99.90
52941;DHT22;62001;53.366;6.636;2022-08-01T05:04:01;16.00;99.90
52941;DHT22;62001;53.366;6.636;2022-08-01T05:06:27;16.00;99.90
52941;DHT22;62001;53.366;6.636;2022-08-01T05:08:53;16.10;99.90
52941;DHT22;62001;53.366;6.636;2022-08-01T05:11:19;16.10;99.90
52941;DHT22;62001;53.366;6.636;2022-08-01T05:13:59;16.20;99.90
52941;DHT22;62001;53.366;6.636;2022-08-01T05:16:24;16.30;99.90
52941;DHT22;62001;53.366;6.636;2022-08-01T05:18:50;16.30;99.90
52941;DHT22;62001;53.366;6.636;2022-08-01T05:21:16;16.30;99.90
52941;DHT22;62001;53.366;6.636;2022-08-01T05:23:42;16.30;99.90
52941;DHT22;62001;53.366;6.636;2022-08-01T05:26:08;16.30;99.90
52941;DHT22;62001;53.366;6.636;2022-08-01T05:28:45;16.40;99.90
52941;DHT22;62001;53.366;6.636;2022-08-01T05:31:11;16.40;99.90
52941;DHT22;62001;53.366;6.636;2022-08-01T05:33:36;16.40;99.90
52941;DHT22;62001;53.366;6.636;2022-08-01T05:36:02;16.50;99.90
52941;DHT22;62001;53.366;6.636;2022-08-01T05:38:30;16.50;99.90
52941;DHT22;62001;53.366;6.636;2022-08-01T05:40:58;16.50;99.90
52941;DHT22;62001;53.366;6.636;2022-08-01T05:43:25;16.50;99.90
52941;DHT22;62001;53.366;6.636;2022-08-01T05:45:51;16.50;99.90
52941;DHT22;62001;53.366;6.636;2022-08-01T05:48:17;16.50;99.90
52941;DHT22;62001;53.366;6.636;2022-08-01T05:50:43;16.50;99.90
52941;DHT22;62001;53.366;6.636;2022-08-01T05:53:09;16.50;99.90
52941;DHT22;62001;53.366;6.636;2022-08-01T05:55:35;16.50;99.90
52941;DHT22;62001;53.366;6.636;2022-08-01T05:58:01;16.50;99.90
52941;DHT22;62001;53.366;6.636;2022-08-01T06:00:27;16.50;99.90
52941;DHT22;62001;53.366;6.636;2022-08-01T06:03:03;16.50;99.90
52941;DHT22;62001;53.366;6.636;2022-08-01T06:05:29;16.50;99.90
52941;DHT22;62001;53.366;6.636;2022-08-01T06:08:03;16.60;99.90
52941;DHT22;62001;53.366;6.636;2022-08-01T06:10:29;16.60;99.90
52941;DHT22;62001;53.366;6.636;2022-08-01T06:13:02;16.60;99.90
52941;DHT22;62001;53.366;6.636;2022-08-01T06:15:29;16.60;99.90
52941;DHT22;62001;53.366;6.636;2022-08-01T06:17:55;16.60;99.90
52941;DHT22;62001;53.366;6.636;2022-08-01T06:20:21;16.60;99.90
52941;DHT22;62001;53.366;6.636;2022-08-01T06:22:47;16.60;99.90
52941;DHT22;62001;53.366;6.636;2022-08-01T06:25:13;16.60;99.90
52941;DHT22;62001;53.366;6.636;2022-08-01T06:27:39;16.60;99.90
52941;DHT22;62001;53.366;6.636;2022-08-01T06:30:05;16.70;99.90
52941;DHT22;62001;53.366;6.636;2022-08-01T06:32:33;16.70;99.90
52941;DHT22;62001;53.366;6.636;2022-08-01T06:34:59;16.80;99.90
52941;DHT22;62001;53.366;6.636;2022-08-01T06:37:31;16.80;99.90
52941;DHT22;62001;53.366;6.636;2022-08-01T06:40:04;16.90;99.90
52941;DHT22;62001;53.366;6.636;2022-08-01T06:42:31;17.00;99.90
52941;DHT22;62001;53.366;6.636;2022-08-01T06:45:10;17.00;99.90
52941;DHT22;62001;53.366;6.636;2022-08-01T06:47:40;17.00;99.90
52941;DHT22;62001;53.366;6.636;2022-08-01T06:50:07;17.00;99.90
52941;DHT22;62001;53.366;6.636;2022-08-01T06:52:34;17.00;99.90
52941;DHT22;62001;53.366;6.636;2022-08-01T06:55:02;16.90;99.90
52941;DHT22;62001;53.366;6.636;2022-08-01T06:57:29;17.00;99.90
52941;DHT22;62001;53.366;6.636;2022-08-01T06:59:55;17.00;99.90
52941;DHT22;62001;53.366;6.636;2022-08-01T07:02:22;17.00;99.90
52941;DHT22;62001;53.366;6.636;2022-08-01T07:04:49;17.20;99.90
52941;DHT22;62001;53.366;6.636;2022-08-01T07:07:17;17.60;99.90
52941;DHT22;62001;53.366;6.636;2022-08-01T07:09:44;17.90;99.90
52941;DHT22;62001;53.366;6.636;2022-08-01T07:12:10;18.20;99.90
52941;DHT22;62001;53.366;6.636;2022-08-01T07:14:36;18.60;99.90
52941;DHT22;62001;53.366;6.636;2022-08-01T07:17:02;18.80;99.90
52941;DHT22;62001;53.366;6.636;2022-08-01T07:19:28;18.90;99.90
52941;DHT22;62001;53.366;6.636;2022-08-01T07:21:54;18.70;99.90
52941;DHT22;62001;53.366;6.636;2022-08-01T07:24:19;18.60;99.90
52941;DHT22;62001;53.366;6.636;2022-08-01T07:26:47;18.40;99.90
52941;DHT22;62001;53.366;6.636;2022-08-01T07:29:13;18.30;99.90
52941;DHT22;62001;53.366;6.636;2022-08-01T07:31:41;18.50;99.90
52941;DHT22;62001;53.366;6.636;2022-08-01T07:34:15;18.60;99.90
52941;DHT22;62001;53.366;6.636;2022-08-01T07:36:41;18.80;99.90
52941;DHT22;62001;53.366;6.636;2022-08-01T07:39:07;18.60;99.90
52941;DHT22;62001;53.366;6.636;2022-08-01T07:41:33;18.50;99.90
52941;DHT22;62001;53.366;6.636;2022-08-01T07:44:09;18.50;99.90
52941;DHT22;62001;53.366;6.636;2022-08-01T07:46:35;18.50;99.90
52941;DHT22;62001;53.366;6.636;2022-08-01T07:49:01;18.40;99.90
52941;DHT22;62001;53.366;6.636;2022-08-01T07:51:27;18.30;99.90
52941;DHT22;62001;53.366;6.636;2022-08-01T07:53:53;18.30;99.90
52941;DHT22;62001;53.366;6.636;2022-08-01T07:56:19;18.30;99.90
52941;DHT22;62001;53.366;6.636;2022-08-01T07:58:45;18.40;99.90
52941;DHT22;62001;53.366;6.636;2022-08-01T08:01:12;18.40;99.90
52941;DHT22;62001;53.366;6.636;2022-08-01T08:03:37;18.60;99.90
52941;DHT22;62001;53.366;6.636;2022-08-01T08:06:03;18.90;99.90
52941;DHT22;62001;53.366;6.636;2022-08-01T08:08:29;19.10;99.90
52941;DHT22;62001;53.366;6.636;2022-08-01T08:10:55;19.10;99.90
52941;DHT22;62001;53.366;6.636;2022-08-01T08:13:21;19.20;99.90
52941;DHT22;62001;53.366;6.636;2022-08-01T08:15:47;19.10;99.90
52941;DHT22;62001;53.366;6.636;2022-08-01T08:18:13;19.10;99.90
52941;DHT22;62001;53.366;6.636;2022-08-01T08:20:38;19.10;99.90
52941;DHT22;62001;53.366;6.636;2022-08-01T08:23:04;19.10;99.90
52941;DHT22;62001;53.366;6.636;2022-08-01T08:25:50;19.00;99.90
52941;DHT22;62001;53.366;6.636;2022-08-01T08:28:16;19.00;99.90
52941;DHT22;62001;53.366;6.636;2022-08-01T08:30:42;18.90;99.90
52941;DHT22;62001;53.366;6.636;2022-08-01T08:33:07;18.80;99.90
52941;DHT22;62001;53.366;6.636;2022-08-01T08:35:44;18.90;99.90
52941;DHT22;62001;53.366;6.636;2022-08-01T08:38:10;19.00;99.90
52941;DHT22;62001;53.366;6.636;2022-08-01T08:40:36;19.20;99.90
52941;DHT22;62001;53.366;6.636;2022-08-01T08:43:10;19.10;99.90
52941;DHT22;62001;53.366;6.636;2022-08-01T08:45:38;19.10;99.90
52941;DHT22;62001;53.366;6.636;2022-08-01T08:48:39;19.00;99.90
52941;DHT22;62001;53.366;6.636;2022-08-01T08:51:06;19.20;99.90
52941;DHT22;62001;53.366;6.636;2022-08-01T08:53:35;19.20;99.90
52941;DHT22;62001;53.366;6.636;2022-08-01T08:56:02;19.30;99.90
52941;DHT22;62001;53.366;6.636;2022-08-01T08:58:28;19.40;99.90
52941;DHT22;62001;53.366;6.636;2022-08-01T09:01:01;19.40;99.90
52941;DHT22;62001;53.366;6.636;2022-08-01T09:03:27;19.40;99.90
52941;DHT22;62001;53.366;6.636;2022-08-01T09:05:52;19.40;99.90
52941;DHT22;62001;53.366;6.636;2022-08-01T09:08:18;19.30;99.90
52941;DHT22;62001;53.366;6.636;2022-08-01T09:10:54;19.40;99.90
52941;DHT22;62001;53.366;6.636;2022-08-01T09:13:20;19.30;99.90
52941;DHT22;62001;53.366;6.636;2022-08-01T09:15:48;19.20;99.90
52941;DHT22;62001;53.366;6.636;2022-08-01T09:18:44;19.20;99.90
52941;DHT22;62001;53.366;6.636;2022-08-01T09:21:18;19.20;99.90
52941;DHT22;62001;53.366;6.636;2022-08-01T09:23:47;19.10;99.90
52941;DHT22;62001;53.366;6.636;2022-08-01T09:26:18;19.30;99.90
52941;DHT22;62001;53.366;6.636;2022-08-01T09:28:46;19.30;99.90
52941;DHT22;62001;53.366;6.636;2022-08-01T09:31:14;19.30;99.90
52941;DHT22;62001;53.366;6.636;2022-08-01T09:33:59;19.20;99.90
52941;DHT22;62001;53.366;6.636;2022-08-01T09:36:52;19.00;99.90
52941;DHT22;62001;53.366;6.636;2022-08-01T09:39:29;18.90;99.90
52941;DHT22;62001;53.366;6.636;2022-08-01T09:42:00;18.90;99.90
52941;DHT22;62001;53.366;6.636;2022-08-01T09:44:43;18.90;99.90
52941;DHT22;62001;53.366;6.636;2022-08-01T09:47:11;18.90;99.90
52941;DHT22;62001;53.366;6.636;2022-08-01T09:49:38;18.80;99.90
52941;DHT22;62001;53.366;6.636;2022-08-01T09:54:40;18.60;99.90
52941;DHT22;62001;53.366;6.636;2022-08-01T09:57:17;18.60;99.90
52941;DHT22;62001;53.366;6.636;2022-08-01T09:59:49;18.70;99.90
52941;DHT22;62001;53.366;6.636;2022-08-01T10:02:28;19.00;99.90
52941;DHT22;62001;53.366;6.636;2022-08-01T10:04:54;19.00;99.90
52941;DHT22;62001;53.366;6.636;2022-08-01T10:07:21;18.70;99.90
52941;DHT22;62001;53.366;6.636;2022-08-01T10:09:47;18.50;99.90
52941;DHT22;62001;53.366;6.636;2022-08-01T10:12:16;18.30;99.90
52941;DHT22;62001;53.366;6.636;2022-08-01T10:14:43;18.40;99.90
52941;DHT22;62001;53.366;6.636;2022-08-01T10:17:14;18.50;99.90
52941;DHT22;62001;53.366;6.636;2022-08-01T10:19:42;18.60;99.90
52941;DHT22;62001;53.366;6.636;2022-08-01T10:22:10;18.60;99.90
52941;DHT22;62001;53.366;6.636;2022-08-01T10:24:39;18.60;99.90
52941;DHT22;62001;53.366;6.636;2022-08-01T10:27:08;18.70;99.90
52941;DHT22;62001;53.366;6.636;2022-08-01T10:29:41;18.80;99.90
52941;DHT22;62001;53.366;6.636;2022-08-01T10:32:07;18.80;99.90
52941;DHT22;62001;53.366;6.636;2022-08-01T10:34:37;18.90;99.90
52941;DHT22;62001;53.366;6.636;2022-08-01T10:37:04;18.90;99.90
52941;DHT22;62001;53.366;6.636;2022-08-01T10:39:32;18.90;99.90
52941;DHT22;62001;53.366;6.636;2022-08-01T10:41:58;19.00;99.90
52941;DHT22;62001;53.366;6.636;2022-08-01T10:44:27;19.10;99.90
52941;DHT22;62001;53.366;6.636;2022-08-01T10:46:57;19.10;99.90
52941;DHT22;62001;53.366;6.636;2022-08-01T10:49:29;19.00;99.90
52941;DHT22;62001;53.366;6.636;2022-08-01T10:51:56;19.10;99.90
52941;DHT22;62001;53.366;6.636;2022-08-01T10:54:25;19.00;99.90
52941;DHT22;62001;53.366;6.636;2022-08-01T10:56:52;18.90;99.90
52941;DHT22;62001;53.366;6.636;2022-08-01T10:59:22;18.90;99.90
52941;DHT22;62001;53.366;6.636;2022-08-01T11:01:59;19.00;99.90
52941;DHT22;62001;53.366;6.636;2022-08-01T11:07:51;19.10;99.90
52941;DHT22;62001;53.366;6.636;2022-08-01T11:10:37;19.00;99.90
52941;DHT22;62001;53.366;6.636;2022-08-01T11:13:03;19.00;99.90
52941;DHT22;62001;53.366;6.636;2022-08-01T11:15:33;19.00;99.90
52941;DHT22;62001;53.366;6.636;2022-08-01T11:18:01;19.00;99.90
52941;DHT22;62001;53.366;6.636;2022-08-01T11:20:31;19.00;99.90
52941;DHT22;62001;53.366;6.636;2022-08-01T11:28:22;19.10;99.90
52941;DHT22;62001;53.366;6.636;2022-08-01T11:38:45;19.40;99.90
52941;DHT22;62001;53.366;6.636;2022-08-01T11:46:55;19.50;99.90
52941;DHT22;62001;53.366;6.636;2022-08-01T11:52:07;19.60;99.90
52941;DHT22;62001;53.366;6.636;2022-08-01T11:54:36;19.50;99.90
52941;DHT22;62001;53.366;6.636;2022-08-01T11:57:07;19.30;99.90
52941;DHT22;62001;53.366;6.636;2022-08-01T11:59:47;19.10;99.90
52941;DHT22;62001;53.366;6.636;2022-08-01T12:02:55;19.20;99.90
52941;DHT22;62001;53.366;6.636;2022-08-01T12:05:12;19.20;99.90
52941;DHT22;62001;53.366;6.636;2022-08-01T12:07:41;19.30;99.90
52941;DHT22;62001;53.366;6.636;2022-08-01T12:10:10;19.50;99.90
52941;DHT22;62001;53.366;6.636;2022-08-01T12:12:41;19.60;99.90
52941;DHT22;62001;53.366;6.636;2022-08-01T12:15:08;19.60;99.90
52941;DHT22;62001;53.366;6.636;2022-08-01T12:20:04;19.40;99.90
52941;DHT22;62001;53.366;6.636;2022-08-01T12:22:31;19.40;99.90
52941;DHT22;62001;53.366;6.636;2022-08-01T12:25:05;19.40;99.90
52941;DHT22;62001;53.366;6.636;2022-08-01T12:27:32;19.60;99.90
52941;DHT22;62001;53.366;6.636;2022-08-01T12:29:58;19.70;99.90
52941;DHT22;62001;53.366;6.636;2022-08-01T12:34:54;19.80;99.90
52941;DHT22;62001;53.366;6.636;2022-08-01T12:37:20;19.90;99.90
52941;DHT22;62001;53.366;6.636;2022-08-01T12:39:46;20.00;99.90
52941;DHT22;62001;53.366;6.636;2022-08-01T12:42:12;20.00;99.90
52941;DHT22;62001;53.366;6.636;2022-08-01T12:44:39;19.90;99.90
52941;DHT22;62001;53.366;6.636;2022-08-01T12:47:06;19.90;99.90
52941;DHT22;62001;53.366;6.636;2022-08-01T12:49:34;20.00;99.90
52941;DHT22;62001;53.366;6.636;2022-08-01T12:52:01;20.00;99.90
52941;DHT22;62001;53.366;6.636;2022-08-01T12:54:27;19.90;99.90
52941;DHT22;62001;53.366;6.636;2022-08-01T12:56:53;20.00;99.90
52941;DHT22;62001;53.366;6.636;2022-08-01T12:59:23;20.10;99.90
52941;DHT22;62001;53.366;6.636;2022-08-01T13:01:52;20.10;99.90
52941;DHT22;62001;53.366;6.636;2022-08-01T13:04:18;20.00;99.90
52941;DHT22;62001;53.366;6.636;2022-08-01T13:06:44;19.80;99.90
52941;DHT22;62001;53.366;6.636;2022-08-01T13:09:11;19.60;99.90
52941;DHT22;62001;53.366;6.636;2022-08-01T13:11:41;19.40;99.90
52941;DHT22;62001;53.366;6.636;2022-08-01T13:14:09;19.50;99.90
52941;DHT22;62001;53.366;6.636;2022-08-01T13:16:46;19.60;99.90
52941;DHT22;62001;53.366;6.636;2022-08-01T13:19:13;19.70;99.90
52941;DHT22;62001;53.366;6.636;2022-08-01T13:21:39;19.70;99.90
52941;DHT22;62001;53.366;6.636;2022-08-01T13:24:27;19.80;99.90
52941;DHT22;62001;53.366;6.636;2022-08-01T13:26:59;19.80;99.90
52941;DHT22;62001;53.366;6.636;2022-08-01T13:29:36;19.80;99.90
52941;DHT22;62001;53.366;6.636;2022-08-01T13:32:15;19.80;99.90
52941;DHT22;62001;53.366;6.636;2022-08-01T13:34:41;19.60;99.90
52941;DHT22;62001;53.366;6.636;2022-08-01T13:37:07;19.30;99.90
52941;DHT22;62001;53.366;6.636;2022-08-01T13:39:33;19.20;99.90
52941;DHT22;62001;53.366;6.636;2022-08-01T13:42:09;19.20;99.90
52941;DHT22;62001;53.366;6.636;2022-08-01T13:44:35;19.40;99.90
52941;DHT22;62001;53.366;6.636;2022-08-01T13:47:02;19.60;99.90
52941;DHT22;62001;53.366;6.636;2022-08-01T13:49:28;19.70;99.90
52941;DHT22;62001;53.366;6.636;2022-08-01T13:51:54;19.90;99.90
52941;DHT22;62001;53.366;6.636;2022-08-01T13:54:19;20.00;99.90
52941;DHT22;62001;53.366;6.636;2022-08-01T13:56:45;20.00;99.90
52941;DHT22;62001;53.366;6.636;2022-08-01T13:59:12;19.80;99.90
52941;DHT22;62001;53.366;6.636;2022-08-01T14:01:38;19.80;99.90
52941;DHT22;62001;53.366;6.636;2022-08-01T14:04:04;19.90;99.90
52941;DHT22;62001;53.366;6.636;2022-08-01T14:06:31;20.00;99.90
52941;DHT22;62001;53.366;6.636;2022-08-01T14:08:57;20.10;99.90
52941;DHT22;62001;53.366;6.636;2022-08-01T14:11:23;20.20;99.90
52941;DHT22;62001;53.366;6.636;2022-08-01T14:13:49;20.30;99.90
52941;DHT22;62001;53.366;6.636;2022-08-01T14:16:15;20.40;99.90
52941;DHT22;62001;53.366;6.636;2022-08-01T14:18:41;20.30;99.90
52941;DHT22;62001;53.366;6.636;2022-08-01T14:21:07;20.20;99.90
52941;DHT22;62001;53.366;6.636;2022-08-01T14:23:33;20.20;99.90
52941;DHT22;62001;53.366;6.636;2022-08-01T14:25:59;20.30;99.90
52941;DHT22;62001;53.366;6.636;2022-08-01T14:28:25;20.30;99.90
52941;DHT22;62001;53.366;6.636;2022-08-01T14:30:53;20.20;99.90
52941;DHT22;62001;53.366;6.636;2022-08-01T14:33:21;20.10;99.90
52941;DHT22;62001;53.366;6.636;2022-08-01T14:35:47;20.10;99.90
52941;DHT22;62001;53.366;6.636;2022-08-01T14:38:13;20.20;99.90
52941;DHT22;62001;53.366;6.636;2022-08-01T14:40:39;20.20;99.90
52941;DHT22;62001;53.366;6.636;2022-08-01T14:43:06;20.10;99.90
52941;DHT22;62001;53.366;6.636;2022-08-01T14:45:32;20.00;99.90
52941;DHT22;62001;53.366;6.636;2022-08-01T14:47:58;19.90;99.60
52941;DHT22;62001;53.366;6.636;2022-08-01T14:50:24;19.80;99.90
52941;DHT22;62001;53.366;6.636;2022-08-01T14:52:52;19.80;99.90
52941;DHT22;62001;53.366;6.636;2022-08-01T14:55:18;19.70;99.90
52941;DHT22;62001;53.366;6.636;2022-08-01T14:57:48;19.80;99.90
52941;DHT22;62001;53.366;6.636;2022-08-01T15:00:15;19.80;99.90
52941;DHT22;62001;53.366;6.636;2022-08-01T15:02:41;20.00;99.90
52941;DHT22;62001;53.366;6.636;2022-08-01T15:05:08;20.10;99.90
52941;DHT22;62001;53.366;6.636;2022-08-01T15:07:35;20.10;99.60
52941;DHT22;62001;53.366;6.636;2022-08-01T15:10:01;20.00;99.00
52941;DHT22;62001;53.366;6.636;2022-08-01T15:12:30;19.90;99.20
52941;DHT22;62001;53.366;6.636;2022-08-01T15:14:56;20.00;99.80
52941;DHT22;62001;53.366;6.636;2022-08-01T15:17:26;20.10;99.00
52941;DHT22;62001;53.366;6.636;2022-08-01T15:20:02;19.90;99.20
52941;DHT22;62001;53.366;6.636;2022-08-01T15:22:29;19.90;98.70
52941;DHT22;62001;53.366;6.636;2022-08-01T15:24:57;19.90;99.00
52941;DHT22;62001;53.366;6.636;2022-08-01T15:27:25;19.90;99.10
52941;DHT22;62001;53.366;6.636;2022-08-01T15:29:52;19.90;98.50
52941;DHT22;62001;53.366;6.636;2022-08-01T15:32:18;19.70;99.20
52941;DHT22;62001;53.366;6.636;2022-08-01T15:34:44;19.70;99.60
52941;DHT22;62001;53.366;6.636;2022-08-01T15:37:10;19.80;99.00
52941;DHT22;62001;53.366;6.636;2022-08-01T15:39:52;19.80;98.90
52941;DHT22;62001;53.366;6.636;2022-08-01T15:42:18;19.80;98.70
52941;DHT22;62001;53.366;6.636;2022-08-01T15:44:44;19.70;98.20
52941;DHT22;62001;53.366;6.636;2022-08-01T15:47:11;19.50;98.70
52941;DHT22;62001;53.366;6.636;2022-08-01T15:49:38;19.60;98.50
52941;DHT22;62001;53.366;6.636;2022-08-01T15:52:05;19.60;98.90
52941;DHT22;62001;53.366;6.636;2022-08-01T15:54:31;19.50;98.80
52941;DHT22;62001;53.366;6.636;2022-08-01T15:56:58;19.40;99.10
52941;DHT22;62001;53.366;6.636;2022-08-01T15:59:24;19.40;98.90
52941;DHT22;62001;53.366;6.636;2022-08-01T16:01:52;19.30;98.90
52941;DHT22;62001;53.366;6.636;2022-08-01T16:04:42;19.30;99.20
52941;DHT22;62001;53.366;6.636;2022-08-01T16:07:08;19.40;99.30
52941;DHT22;62001;53.366;6.636;2022-08-01T16:09:33;19.40;99.10
52941;DHT22;62001;53.366;6.636;2022-08-01T16:11:59;19.40;98.90
52941;DHT22;62001;53.366;6.636;2022-08-01T16:14:25;19.40;99.10
52941;DHT22;62001;53.366;6.636;2022-08-01T16:16:51;19.50;99.20
52941;DHT22;62001;53.366;6.636;2022-08-01T16:19:17;19.60;98.80
52941;DHT22;62001;53.366;6.636;2022-08-01T16:21:50;19.60;98.70
52941;DHT22;62001;53.366;6.636;2022-08-01T16:24:16;19.60;98.20
52941;DHT22;62001;53.366;6.636;2022-08-01T16:26:43;19.50;98.30